sensor_id;sensor_type;location;lat;lon;timestamp;pressure;altitude;pressure_sealevel;temperature;humidity
1480;BME280;732;51.698;4.886;2022-08-19T00:01:58;101482.84;;;21.31;100.00
1480;BME280;732;51.698;4.886;2022-08-19T00:04:31;101475.09;;;21.19;100.00
1480;BME280;732;51.698;4.886;2022-08-19T00:07:01;101463.75;;;21.05;100.00
1480;BME280;732;51.698;4.886;2022-08-19T00:09:29;101513.13;;;21.24;100.00
1480;BME280;732;51.698;4.886;2022-08-19T00:11:59;101497.34;;;21.10;100.00
1480;BME280;732;51.698;4.886;2022-08-19T00:14:28;101514.13;;;21.15;100.00
1480;BME280;732;51.698;4.886;2022-08-19T00:17:00;101508.88;;;21.11;100.00
1480;BME280;732;51.698;4.886;2022-08-19T00:19:31;101490.34;;;21.05;100.00
1480;BME280;732;51.698;4.886;2022-08-19T00:21:59;101507.84;;;21.21;100.00
1480;BME280;732;51.698;4.886;2022-08-19T00:24:29;101494.78;;;21.04;100.00
1480;BME280;732;51.698;4.886;2022-08-19T00:26:58;101492.16;;;21.00;100.00
1480;BME280;732;51.698;4.886;2022-08-19T00:29:48;101492.25;;;20.93;100.00
1480;BME280;732;51.698;4.886;2022-08-19T00:32:18;101481.88;;;20.74;100.00
1480;BME280;732;51.698;4.886;2022-08-19T00:34:48;101508.16;;;20.95;100.00
1480;BME280;732;51.698;4.886;2022-08-19T00:37:17;101480.19;;;20.68;100.00
1480;BME280;732;51.698;4.886;2022-08-19T00:39:46;101510.91;;;20.89;100.00
1480;BME280;732;51.698;4.886;2022-08-19T00:42:15;101508.19;;;20.93;100.00
1480;BME280;732;51.698;4.886;2022-08-19T00:44:44;101495.91;;;20.86;100.00
1480;BME280;732;51.698;4.886;2022-08-19T00:47:13;101493.38;;;20.77;100.00
1480;BME280;732;51.698;4.886;2022-08-19T00:49:46;101490.81;;;20.68;100.00
1480;BME280;732;51.698;4.886;2022-08-19T00:52:23;101475.94;;;20.57;100.00
1480;BME280;732;51.698;4.886;2022-08-19T00:54:57;101470.63;;;20.54;100.00
1480;BME280;732;51.698;4.886;2022-08-19T00:57:30;101497.91;;;20.69;100.00
1480;BME280;732;51.698;4.886;2022-08-19T01:00:04;101490.06;;;20.59;100.00
1480;BME280;732;51.698;4.886;2022-08-19T01:02:33;101498.03;;;20.59;100.00
1480;BME280;732;51.698;4.886;2022-08-19T01:05:06;101500.69;;;20.59;100.00
1480;BME280;732;51.698;4.886;2022-08-19T01:07:39;101500.00;;;20.43;100.00
1480;BME280;732;51.698;4.886;2022-08-19T01:10:11;101490.31;;;20.38;100.00
1480;BME280;732;51.698;4.886;2022-08-19T01:12:40;101485.88;;;20.37;100.00
1480;BME280;732;51.698;4.886;2022-08-19T01:15:15;101456.06;;;20.14;100.00
1480;BME280;732;51.698;4.886;2022-08-19T01:17:45;101487.72;;;20.32;100.00
1480;BME280;732;51.698;4.886;2022-08-19T01:20:19;101482.41;;;20.33;100.00
1480;BME280;732;51.698;4.886;2022-08-19T01:22:54;101460.47;;;20.13;100.00
1480;BME280;732;51.698;4.886;2022-08-19T01:25:31;101482.56;;;20.18;100.00
1480;BME280;732;51.698;4.886;2022-08-19T01:28:01;101490.44;;;20.26;100.00
1480;BME280;732;51.698;4.886;2022-08-19T01:30:37;101502.03;;;20.17;100.00
1480;BME280;732;51.698;4.886;2022-08-19T01:33:17;101482.66;;;20.08;100.00
1480;BME280;732;51.698;4.886;2022-08-19T01:35:47;101522.31;;;20.24;100.00
1480;BME280;732;51.698;4.886;2022-08-19T01:38:24;101454.56;;;19.87;100.00
1480;BME280;732;51.698;4.886;2022-08-19T01:40:53;101517.88;;;20.26;100.00
1480;BME280;732;51.698;4.886;2022-08-19T01:43:22;101510.13;;;20.02;100.00
1480;BME280;732;51.698;4.886;2022-08-19T01:45:50;101482.84;;;19.88;100.00
1480;BME280;732;51.698;4.886;2022-08-19T01:48:19;101512.75;;;20.05;100.00
1480;BME280;732;51.698;4.886;2022-08-19T01:50:49;101493.41;;;19.94;100.00
1480;BME280;732;51.698;4.886;2022-08-19T01:53:17;101526.00;;;20.08;100.00
1480;BME280;732;51.698;4.886;2022-08-19T01:55:48;101524.22;;;20.07;100.00
1480;BME280;732;51.698;4.886;2022-08-19T01:58:20;101526.97;;;19.98;100.00
1480;BME280;732;51.698;4.886;2022-08-19T02:00:51;101477.75;;;19.65;100.00
1480;BME280;732;51.698;4.886;2022-08-19T02:03:19;101530.44;;;20.05;100.00
1480;BME280;732;51.698;4.886;2022-08-19T02:05:53;101518.19;;;19.93;100.00
1480;BME280;732;51.698;4.886;2022-08-19T02:08:21;101483.72;;;19.90;100.00
1480;BME280;732;51.698;4.886;2022-08-19T02:10:51;101517.19;;;20.06;100.00
1480;BME280;732;51.698;4.886;2022-08-19T02:13:21;101480.22;;;19.85;100.00
1480;BME280;732;51.698;4.886;2022-08-19T02:15:52;101529.59;;;20.01;100.00
1480;BME280;732;51.698;4.886;2022-08-19T02:18:21;101512.84;;;19.96;100.00
1480;BME280;732;51.698;4.886;2022-08-19T02:20:54;101525.97;;;20.11;100.00
1480;BME280;732;51.698;4.886;2022-08-19T02:23:22;101524.31;;;19.98;100.00
1480;BME280;732;51.698;4.886;2022-08-19T02:25:52;101526.84;;;20.13;100.00
1480;BME280;732;51.698;4.886;2022-08-19T02:28:21;101503.88;;;20.08;100.00
1480;BME280;732;51.698;4.886;2022-08-19T02:30:49;101493.38;;;19.95;100.00
1480;BME280;732;51.698;4.886;2022-08-19T02:33:18;101518.88;;;20.13;100.00
1480;BME280;732;51.698;4.886;2022-08-19T02:35:47;101513.63;;;20.06;100.00
1480;BME280;732;51.698;4.886;2022-08-19T02:38:15;101519.69;;;20.20;100.00
1480;BME280;732;51.698;4.886;2022-08-19T02:41:01;101513.56;;;20.10;100.00
1480;BME280;732;51.698;4.886;2022-08-19T02:43:34;101486.31;;;19.96;100.00
1480;BME280;732;51.698;4.886;2022-08-19T02:46:12;101518.84;;;20.15;100.00
1480;BME280;732;51.698;4.886;2022-08-19T02:48:41;101513.53;;;20.15;100.00
1480;BME280;732;51.698;4.886;2022-08-19T02:51:17;101502.16;;;20.04;100.00
1480;BME280;732;51.698;4.886;2022-08-19T02:53:45;101505.63;;;20.12;100.00
1480;BME280;732;51.698;4.886;2022-08-19T02:56:15;101519.75;;;20.15;100.00
1480;BME280;732;51.698;4.886;2022-08-19T02:58:44;101471.34;;;19.90;100.00
1480;BME280;732;51.698;4.886;2022-08-19T03:01:21;101505.69;;;20.04;100.00
1480;BME280;732;51.698;4.886;2022-08-19T03:03:50;101491.63;;;19.96;100.00
1480;BME280;732;51.698;4.886;2022-08-19T03:06:19;101484.63;;;19.86;100.00
1480;BME280;732;51.698;4.886;2022-08-19T03:08:49;101492.44;;;20.01;100.00
1480;BME280;732;51.698;4.886;2022-08-19T03:11:22;101497.03;;;19.85;100.00
1480;BME280;732;51.698;4.886;2022-08-19T03:13:51;101485.44;;;19.94;100.00
1480;BME280;732;51.698;4.886;2022-08-19T03:16:23;101489.91;;;19.89;100.00
1480;BME280;732;51.698;4.886;2022-08-19T03:18:53;101482.00;;;19.84;100.00
1480;BME280;732;51.698;4.886;2022-08-19T03:21:24;101491.78;;;19.79;100.00
1480;BME280;732;51.698;4.886;2022-08-19T03:23:54;101471.56;;;19.66;100.00
1480;BME280;732;51.698;4.886;2022-08-19T03:26:24;101504.03;;;19.94;100.00
1480;BME280;732;51.698;4.886;2022-08-19T03:28:53;101473.22;;;19.79;100.00
1480;BME280;732;51.698;4.886;2022-08-19T03:31:26;101483.88;;;19.72;100.00
1480;BME280;732;51.698;4.886;2022-08-19T03:34:19;101507.66;;;19.82;100.00
1480;BME280;732;51.698;4.886;2022-08-19T03:36:48;101506.81;;;19.79;100.00
1480;BME280;732;51.698;4.886;2022-08-19T03:39:17;101454.03;;;19.49;100.00
1480;BME280;732;51.698;4.886;2022-08-19T03:41:48;101478.66;;;19.64;100.00
1480;BME280;732;51.698;4.886;2022-08-19T03:44:38;101468.94;;;19.65;100.00
1480;BME280;732;51.698;4.886;2022-08-19T03:47:06;101510.25;;;19.88;100.00
1480;BME280;732;51.698;4.886;2022-08-19T03:49:35;101504.16;;;19.79;100.00
1480;BME280;732;51.698;4.886;2022-08-19T03:52:04;101510.41;;;19.73;100.00
1480;BME280;732;51.698;4.886;2022-08-19T03:54:35;101505.94;;;19.80;100.00
1480;BME280;732;51.698;4.886;2022-08-19T03:57:06;101502.53;;;19.64;100.00
1480;BME280;732;51.698;4.886;2022-08-19T03:59:37;101517.50;;;19.70;100.00
1480;BME280;732;51.698;4.886;2022-08-19T04:02:09;101503.47;;;19.54;100.00
1480;BME280;732;51.698;4.886;2022-08-19T04:04:40;101444.50;;;19.21;100.00
1480;BME280;732;51.698;4.886;2022-08-19T04:07:12;101486.72;;;19.51;100.00
1480;BME280;732;51.698;4.886;2022-08-19T04:09:42;101500.81;;;19.56;100.00
1480;BME280;732;51.698;4.886;2022-08-19T04:12:13;101511.50;;;19.47;100.00
1480;BME280;732;51.698;4.886;2022-08-19T04:14:42;101522.09;;;19.50;100.00
1480;BME280;732;51.698;4.886;2022-08-19T04:17:11;101516.75;;;19.53;100.00
1480;BME280;732;51.698;4.886;2022-08-19T04:19:41;101513.22;;;19.55;100.00
1480;BME280;732;51.698;4.886;2022-08-19T04:22:11;101510.59;;;19.49;100.00
1480;BME280;732;51.698;4.886;2022-08-19T04:24:39;101514.94;;;19.58;100.00
1480;BME280;732;51.698;4.886;2022-08-19T04:27:08;101479.78;;;19.26;100.00
1480;BME280;732;51.698;4.886;2022-08-19T04:29:38;101464.84;;;19.22;100.00
1480;BME280;732;51.698;4.886;2022-08-19T04:32:07;101516.91;;;19.24;100.00
1480;BME280;732;51.698;4.886;2022-08-19T04:34:37;101480.91;;;18.94;100.00
1480;BME280;732;51.698;4.886;2022-08-19T04:37:26;101501.16;;;19.00;100.00
1480;BME280;732;51.698;4.886;2022-08-19T04:40:05;101491.41;;;19.05;100.00
1480;BME280;732;51.698;4.886;2022-08-19T04:42:51;101507.28;;;19.14;100.00
1480;BME280;732;51.698;4.886;2022-08-19T04:45:22;101514.34;;;19.11;100.00
1480;BME280;732;51.698;4.886;2022-08-19T04:47:55;101533.81;;;19.08;100.00
1480;BME280;732;51.698;4.886;2022-08-19T04:50:45;101537.31;;;19.12;100.00
1480;BME280;732;51.698;4.886;2022-08-19T04:53:13;101517.91;;;19.05;100.00
1480;BME280;732;51.698;4.886;2022-08-19T04:55:42;101526.78;;;19.02;100.00
1480;BME280;732;51.698;4.886;2022-08-19T04:58:10;101531.13;;;19.13;100.00
1480;BME280;732;51.698;4.886;2022-08-19T05:00:40;101530.16;;;19.24;100.00
1480;BME280;732;51.698;4.886;2022-08-19T05:03:09;101515.22;;;19.11;100.00
1480;BME280;732;51.698;4.886;2022-08-19T05:05:40;101536.41;;;19.13;100.00
1480;BME280;732;51.698;4.886;2022-08-19T05:08:11;101539.00;;;19.25;100.00
1480;BME280;732;51.698;4.886;2022-08-19T05:10:42;101541.72;;;19.16;100.00
1480;BME280;732;51.698;4.886;2022-08-19T05:13:11;101538.22;;;19.09;100.00
1480;BME280;732;51.698;4.886;2022-08-19T05:15:41;101536.53;;;18.94;100.00
1480;BME280;732;51.698;4.886;2022-08-19T05:18:10;101515.31;;;18.99;100.00
1480;BME280;732;51.698;4.886;2022-08-19T05:20:56;101541.75;;;19.08;100.00
1480;BME280;732;51.698;4.886;2022-08-19T05:23:42;101544.34;;;19.19;100.00
1480;BME280;732;51.698;4.886;2022-08-19T05:26:11;101533.78;;;19.14;100.00
1480;BME280;732;51.698;4.886;2022-08-19T05:28:39;101509.94;;;19.11;100.00
1480;BME280;732;51.698;4.886;2022-08-19T05:31:09;101523.09;;;19.32;100.00
1480;BME280;732;51.698;4.886;2022-08-19T05:33:38;101540.53;;;19.66;100.00
1480;BME280;732;51.698;4.886;2022-08-19T05:36:07;101533.41;;;19.71;100.00
1480;BME280;732;51.698;4.886;2022-08-19T05:38:35;101530.72;;;19.76;100.00
1480;BME280;732;51.698;4.886;2022-08-19T05:41:07;101504.19;;;19.76;100.00
1480;BME280;732;51.698;4.886;2022-08-19T05:43:37;101512.72;;;20.10;100.00
1480;BME280;732;51.698;4.886;2022-08-19T05:46:07;101529.38;;;20.25;100.00
1480;BME280;732;51.698;4.886;2022-08-19T05:48:37;101512.59;;;20.22;100.00
1480;BME280;732;51.698;4.886;2022-08-19T05:51:06;101532.88;;;20.30;100.00
1480;BME280;732;51.698;4.886;2022-08-19T05:53:36;101522.22;;;20.33;100.00
1480;BME280;732;51.698;4.886;2022-08-19T05:56:05;101538.00;;;20.48;100.00
1480;BME280;732;51.698;4.886;2022-08-19T05:58:35;101538.00;;;20.47;100.00
1480;BME280;732;51.698;4.886;2022-08-19T06:01:04;101520.59;;;20.20;100.00
1480;BME280;732;51.698;4.886;2022-08-19T06:03:38;101526.41;;;20.54;100.00
1480;BME280;732;51.698;4.886;2022-08-19T06:06:10;101499.38;;;20.19;100.00
1480;BME280;732;51.698;4.886;2022-08-19T06:08:39;101530.22;;;20.30;100.00
1480;BME280;732;51.698;4.886;2022-08-19T06:11:17;101523.94;;;20.39;100.00
1480;BME280;732;51.698;4.886;2022-08-19T06:13:49;101538.63;;;20.68;100.00
1480;BME280;732;51.698;4.886;2022-08-19T06:16:26;101518.88;;;20.90;100.00
1480;BME280;732;51.698;4.886;2022-08-19T06:18:59;101513.47;;;20.95;100.00
1480;BME280;732;51.698;4.886;2022-08-19T06:21:29;101497.03;;;20.67;100.00
1480;BME280;732;51.698;4.886;2022-08-19T06:23:59;101525.31;;;20.71;100.00
1480;BME280;732;51.698;4.886;2022-08-19T06:26:28;101512.72;;;20.87;100.00
1480;BME280;732;51.698;4.886;2022-08-19T06:28:57;101520.50;;;21.02;100.00
1480;BME280;732;51.698;4.886;2022-08-19T06:31:27;101509.88;;;20.99;100.00
1480;BME280;732;51.698;4.886;2022-08-19T06:34:01;101507.22;;;21.02;100.00
1480;BME280;732;51.698;4.886;2022-08-19T06:36:33;101506.28;;;21.06;100.00
1480;BME280;732;51.698;4.886;2022-08-19T06:39:04;101514.13;;;21.17;100.00
1480;BME280;732;51.698;4.886;2022-08-19T06:41:35;101499.13;;;21.11;100.00
1480;BME280;732;51.698;4.886;2022-08-19T06:44:17;101514.78;;;21.31;100.00
1480;BME280;732;51.698;4.886;2022-08-19T06:46:46;101523.50;;;21.40;100.00
1480;BME280;732;51.698;4.886;2022-08-19T06:49:23;101523.31;;;21.52;100.00
1480;BME280;732;51.698;4.886;2022-08-19T06:51:59;101529.59;;;21.48;100.00
1480;BME280;732;51.698;4.886;2022-08-19T06:54:28;101517.94;;;21.55;100.00
1480;BME280;732;51.698;4.886;2022-08-19T06:57:03;101517.91;;;21.58;100.00
1480;BME280;732;51.698;4.886;2022-08-19T06:59:32;101519.13;;;21.91;100.00
1480;BME280;732;51.698;4.886;2022-08-19T07:02:05;101498.03;;;21.79;100.00
1480;BME280;732;51.698;4.886;2022-08-19T07:04:36;101509.00;;;22.13;100.00
1480;BME280;732;51.698;4.886;2022-08-19T07:07:11;101532.03;;;22.14;100.00
1480;BME280;732;51.698;4.886;2022-08-19T07:09:51;101530.47;;;22.02;100.00
1480;BME280;732;51.698;4.886;2022-08-19T07:12:28;101532.06;;;22.12;100.00
1480;BME280;732;51.698;4.886;2022-08-19T07:15:05;101515.53;;;21.95;100.00
1480;BME280;732;51.698;4.886;2022-08-19T07:17:35;101510.13;;;21.98;100.00
1480;BME280;732;51.698;4.886;2022-08-19T07:20:08;101526.31;;;22.35;100.00
1480;BME280;732;51.698;4.886;2022-08-19T07:22:38;101525.69;;;22.21;100.00
1480;BME280;732;51.698;4.886;2022-08-19T07:25:08;101514.59;;;21.98;100.00
1480;BME280;732;51.698;4.886;2022-08-19T07:27:37;101526.81;;;22.08;100.00
1480;BME280;732;51.698;4.886;2022-08-19T07:30:08;101510.19;;;21.95;100.00
1480;BME280;732;51.698;4.886;2022-08-19T07:32:40;101540.34;;;21.97;100.00
1480;BME280;732;51.698;4.886;2022-08-19T07:35:11;101511.97;;;21.95;100.00
1480;BME280;732;51.698;4.886;2022-08-19T07:37:39;101530.56;;;21.98;100.00
1480;BME280;732;51.698;4.886;2022-08-19T07:40:11;101531.88;;;21.71;100.00
1480;BME280;732;51.698;4.886;2022-08-19T07:42:40;101536.22;;;21.76;100.00
1480;BME280;732;51.698;4.886;2022-08-19T07:45:10;101556.19;;;22.05;100.00
1480;BME280;732;51.698;4.886;2022-08-19T07:47:38;101543.97;;;21.92;100.00
1480;BME280;732;51.698;4.886;2022-08-19T07:50:19;101541.19;;;21.99;100.00
1480;BME280;732;51.698;4.886;2022-08-19T07:52:49;101539.81;;;22.24;100.00
1480;BME280;732;51.698;4.886;2022-08-19T07:55:21;101540.56;;;22.32;100.00
1480;BME280;732;51.698;4.886;2022-08-19T07:58:12;101545.41;;;22.59;100.00
1480;BME280;732;51.698;4.886;2022-08-19T08:00:42;101546.09;;;22.67;100.00
1480;BME280;732;51.698;4.886;2022-08-19T08:03:12;101550.25;;;22.84;100.00
1480;BME280;732;51.698;4.886;2022-08-19T08:05:43;101530.47;;;22.94;100.00
1480;BME280;732;51.698;4.886;2022-08-19T08:08:29;101544.53;;;23.00;100.00
1480;BME280;732;51.698;4.886;2022-08-19T08:11:17;101546.38;;;22.98;100.00
1480;BME280;732;51.698;4.886;2022-08-19T08:13:48;101555.59;;;23.23;100.00
1480;BME280;732;51.698;4.886;2022-08-19T08:16:27;101548.59;;;23.18;100.00
1480;BME280;732;51.698;4.886;2022-08-19T08:18:58;101544.13;;;23.18;100.00
1480;BME280;732;51.698;4.886;2022-08-19T08:21:28;101544.56;;;23.40;100.00
1480;BME280;732;51.698;4.886;2022-08-19T08:23:57;101553.16;;;23.52;100.00
1480;BME280;732;51.698;4.886;2022-08-19T08:26:26;101554.63;;;23.27;100.00
1480;BME280;732;51.698;4.886;2022-08-19T08:28:55;101548.34;;;22.89;100.00
1480;BME280;732;51.698;4.886;2022-08-19T08:31:23;101569.53;;;23.37;100.00
1480;BME280;732;51.698;4.886;2022-08-19T08:33:52;101532.69;;;23.53;100.00
1480;BME280;732;51.698;4.886;2022-08-19T08:36:20;101556.97;;;23.79;100.00
1480;BME280;732;51.698;4.886;2022-08-19T08:38:50;101552.97;;;23.95;100.00
1480;BME280;732;51.698;4.886;2022-08-19T08:41:26;101561.69;;;24.37;100.00
1480;BME280;732;51.698;4.886;2022-08-19T08:43:57;101552.47;;;24.48;100.00
1480;BME280;732;51.698;4.886;2022-08-19T08:46:34;101564.13;;;24.78;100.00
1480;BME280;732;51.698;4.886;2022-08-19T08:49:23;101546.84;;;24.90;100.00
1480;BME280;732;51.698;4.886;2022-08-19T08:52:02;101555.63;;;25.24;100.00
1480;BME280;732;51.698;4.886;2022-08-19T08:54:38;101535.91;;;25.56;100.00
1480;BME280;732;51.698;4.886;2022-08-19T08:57:28;101541.97;;;25.88;100.00
1480;BME280;732;51.698;4.886;2022-08-19T09:00:11;101530.88;;;25.99;100.00
1480;BME280;732;51.698;4.886;2022-08-19T09:02:44;101537.22;;;26.22;100.00
1480;BME280;732;51.698;4.886;2022-08-19T09:05:17;101520.59;;;26.13;100.00
1480;BME280;732;51.698;4.886;2022-08-19T09:07:59;101502.59;;;25.90;100.00
1480;BME280;732;51.698;4.886;2022-08-19T09:10:37;101516.38;;;26.04;100.00
1480;BME280;732;51.698;4.886;2022-08-19T09:13:16;101535.59;;;26.17;100.00
1480;BME280;732;51.698;4.886;2022-08-19T09:15:55;101533.19;;;25.83;100.00
1480;BME280;732;51.698;4.886;2022-08-19T09:18:25;101534.38;;;26.01;100.00
1480;BME280;732;51.698;4.886;2022-08-19T09:20:55;101533.94;;;26.14;100.00
1480;BME280;732;51.698;4.886;2022-08-19T09:23:24;101512.03;;;26.26;100.00
1480;BME280;732;51.698;4.886;2022-08-19T09:25:57;101509.94;;;25.84;100.00
1480;BME280;732;51.698;4.886;2022-08-19T09:28:26;101516.81;;;26.18;100.00
1480;BME280;732;51.698;4.886;2022-08-19T09:30:58;101537.25;;;26.21;100.00
1480;BME280;732;51.698;4.886;2022-08-19T09:33:26;101534.31;;;26.28;100.00
1480;BME280;732;51.698;4.886;2022-08-19T09:36:05;101519.91;;;26.06;100.00
1480;BME280;732;51.698;4.886;2022-08-19T09:38:35;101539.06;;;25.94;100.00
1480;BME280;732;51.698;4.886;2022-08-19T09:41:14;101537.78;;;26.06;100.00
1480;BME280;732;51.698;4.886;2022-08-19T09:43:47;101552.31;;;26.25;100.00
1480;BME280;732;51.698;4.886;2022-08-19T09:46:20;101526.31;;;26.27;100.00
1480;BME280;732;51.698;4.886;2022-08-19T09:48:50;101520.69;;;26.34;100.00
1480;BME280;732;51.698;4.886;2022-08-19T09:51:23;101511.81;;;26.57;100.00
1480;BME280;732;51.698;4.886;2022-08-19T09:53:55;101503.00;;;27.01;100.00
1480;BME280;732;51.698;4.886;2022-08-19T09:56:32;101529.16;;;27.63;100.00
1480;BME280;732;51.698;4.886;2022-08-19T09:59:02;101527.59;;;28.20;100.00
1480;BME280;732;51.698;4.886;2022-08-19T10:01:32;101515.78;;;28.83;100.00
1480;BME280;732;51.698;4.886;2022-08-19T10:04:01;101515.78;;;29.02;100.00
1480;BME280;732;51.698;4.886;2022-08-19T10:06:46;101519.41;;;28.82;100.00
1480;BME280;732;51.698;4.886;2022-08-19T10:09:21;101517.19;;;28.53;100.00
1480;BME280;732;51.698;4.886;2022-08-19T10:12:02;101507.28;;;28.34;100.00
1480;BME280;732;51.698;4.886;2022-08-19T10:14:33;101504.25;;;28.41;100.00
1480;BME280;732;51.698;4.886;2022-08-19T10:17:02;101495.91;;;28.47;100.00
1480;BME280;732;51.698;4.886;2022-08-19T10:19:48;101511.59;;;28.76;100.00
1480;BME280;732;51.698;4.886;2022-08-19T10:22:22;101486.75;;;28.51;100.00
1480;BME280;732;51.698;4.886;2022-08-19T10:24:52;101508.88;;;28.96;100.00
1480;BME280;732;51.698;4.886;2022-08-19T10:27:22;101501.00;;;28.73;100.00
1480;BME280;732;51.698;4.886;2022-08-19T10:29:52;101502.34;;;28.83;100.00
1480;BME280;732;51.698;4.886;2022-08-19T10:32:21;101493.13;;;28.69;100.00
1480;BME280;732;51.698;4.886;2022-08-19T10:35:01;101480.97;;;28.60;100.00
1480;BME280;732;51.698;4.886;2022-08-19T10:37:32;101498.59;;;28.47;100.00
1480;BME280;732;51.698;4.886;2022-08-19T10:40:02;101454.44;;;28.33;100.00
1480;BME280;732;51.698;4.886;2022-08-19T10:42:33;101494.09;;;28.86;100.00
1480;BME280;732;51.698;4.886;2022-08-19T10:45:02;101490.16;;;28.93;100.00
1480;BME280;732;51.698;4.886;2022-08-19T10:47:33;101490.69;;;29.20;100.00
1480;BME280;732;51.698;4.886;2022-08-19T10:50:01;101498.66;;;29.40;100.00
1480;BME280;732;51.698;4.886;2022-08-19T10:52:54;101483.38;;;29.41;100.00
1480;BME280;732;51.698;4.886;2022-08-19T10:55:24;101484.72;;;29.68;100.00
1480;BME280;732;51.698;4.886;2022-08-19T10:58:14;101438.63;;;29.55;100.00
1480;BME280;732;51.698;4.886;2022-08-19T11:00:50;101499.50;;;29.78;100.00
1480;BME280;732;51.698;4.886;2022-08-19T11:03:20;101491.22;;;29.64;100.00
1480;BME280;732;51.698;4.886;2022-08-19T11:05:58;101482.09;;;29.66;100.00
1480;BME280;732;51.698;4.886;2022-08-19T11:08:27;101498.31;;;29.83;100.00
1480;BME280;732;51.698;4.886;2022-08-19T11:11:01;101501.16;;;29.07;100.00
1480;BME280;732;51.698;4.886;2022-08-19T11:13:33;101511.72;;;28.35;100.00
1480;BME280;732;51.698;4.886;2022-08-19T11:16:07;101527.81;;;27.29;100.00
1480;BME280;732;51.698;4.886;2022-08-19T11:18:39;101529.88;;;26.77;100.00
1480;BME280;732;51.698;4.886;2022-08-19T11:21:13;101531.63;;;26.02;100.00
1480;BME280;732;51.698;4.886;2022-08-19T11:23:45;101548.22;;;25.87;100.00
1480;BME280;732;51.698;4.886;2022-08-19T11:26:14;101518.88;;;25.58;100.00
1480;BME280;732;51.698;4.886;2022-08-19T11:28:44;101524.75;;;25.69;100.00
1480;BME280;732;51.698;4.886;2022-08-19T11:31:16;101537.25;;;25.95;100.00
1480;BME280;732;51.698;4.886;2022-08-19T11:33:45;101521.03;;;25.73;100.00
1480;BME280;732;51.698;4.886;2022-08-19T11:36:17;101527.53;;;25.92;100.00
1480;BME280;732;51.698;4.886;2022-08-19T11:38:48;101529.41;;;25.89;100.00
1480;BME280;732;51.698;4.886;2022-08-19T11:41:18;101554.84;;;26.03;100.00
1480;BME280;732;51.698;4.886;2022-08-19T11:43:49;101558.13;;;26.13;100.00
1480;BME280;732;51.698;4.886;2022-08-19T11:46:18;101542.28;;;25.78;100.00
1480;BME280;732;51.698;4.886;2022-08-19T11:48:46;101543.94;;;25.56;100.00
1480;BME280;732;51.698;4.886;2022-08-19T11:51:17;101494.19;;;24.92;100.00
1480;BME280;732;51.698;4.886;2022-08-19T11:53:46;101550.69;;;24.81;100.00
1480;BME280;732;51.698;4.886;2022-08-19T11:56:15;101557.38;;;24.63;100.00
1480;BME280;732;51.698;4.886;2022-08-19T11:58:44;101544.44;;;24.16;100.00
1480;BME280;732;51.698;4.886;2022-08-19T12:01:17;101571.31;;;24.44;100.00
1480;BME280;732;51.698;4.886;2022-08-19T12:03:47;101582.88;;;24.44;100.00
1480;BME280;732;51.698;4.886;2022-08-19T12:06:19;101579.31;;;24.12;100.00
1480;BME280;732;51.698;4.886;2022-08-19T12:08:51;101607.22;;;24.34;100.00
1480;BME280;732;51.698;4.886;2022-08-19T12:11:20;101595.75;;;24.30;100.00
1480;BME280;732;51.698;4.886;2022-08-19T12:13:49;101622.06;;;24.45;100.00
1480;BME280;732;51.698;4.886;2022-08-19T12:16:22;101616.75;;;24.44;100.00
1480;BME280;732;51.698;4.886;2022-08-19T12:18:53;101568.31;;;24.56;100.00
1480;BME280;732;51.698;4.886;2022-08-19T12:21:25;101589.25;;;25.03;100.00
1480;BME280;732;51.698;4.886;2022-08-19T12:23:57;101622.09;;;25.39;100.00
1480;BME280;732;51.698;4.886;2022-08-19T12:26:28;101579.47;;;25.02;100.00
1480;BME280;732;51.698;4.886;2022-08-19T12:28:59;101580.41;;;25.30;100.00
1480;BME280;732;51.698;4.886;2022-08-19T12:31:30;101595.53;;;25.61;100.00
1480;BME280;732;51.698;4.886;2022-08-19T12:33:59;101593.16;;;25.79;100.00
1480;BME280;732;51.698;4.886;2022-08-19T12:36:29;101588.44;;;26.13;100.00
1480;BME280;732;51.698;4.886;2022-08-19T12:38:59;101581.56;;;26.06;100.00
1480;BME280;732;51.698;4.886;2022-08-19T12:41:28;101568.38;;;25.99;100.00
1480;BME280;732;51.698;4.886;2022-08-19T12:43:56;101551.41;;;25.98;100.00
1480;BME280;732;51.698;4.886;2022-08-19T12:46:25;101488.44;;;25.87;100.00
1480;BME280;732;51.698;4.886;2022-08-19T12:48:56;101559.19;;;26.57;100.00
1480;BME280;732;51.698;4.886;2022-08-19T12:51:31;101515.88;;;25.93;100.00
1480;BME280;732;51.698;4.886;2022-08-19T12:53:59;101548.94;;;26.44;100.00
1480;BME280;732;51.698;4.886;2022-08-19T12:56:28;101544.66;;;26.39;100.00
1480;BME280;732;51.698;4.886;2022-08-19T12:58:57;101557.56;;;26.02;100.00
1480;BME280;732;51.698;4.886;2022-08-19T13:01:27;101557.78;;;25.96;100.00
1480;BME280;732;51.698;4.886;2022-08-19T13:04:01;101562.72;;;26.09;100.00
1480;BME280;732;51.698;4.886;2022-08-19T13:06:29;101561.66;;;26.38;100.00
1480;BME280;732;51.698;4.886;2022-08-19T13:08:58;101552.53;;;26.43;100.00
1480;BME280;732;51.698;4.886;2022-08-19T13:11:26;101525.78;;;26.17;100.00
1480;BME280;732;51.698;4.886;2022-08-19T13:14:00;101535.25;;;26.27;100.00
1480;BME280;732;51.698;4.886;2022-08-19T13:16:28;101533.19;;;26.59;100.00
1480;BME280;732;51.698;4.886;2022-08-19T13:18:57;101547.22;;;26.67;100.00
1480;BME280;732;51.698;4.886;2022-08-19T13:21:27;101521.91;;;26.26;100.00
1480;BME280;732;51.698;4.886;2022-08-19T13:23:57;101541.78;;;26.19;100.00
1480;BME280;732;51.698;4.886;2022-08-19T13:26:25;101531.69;;;26.01;100.00
1480;BME280;732;51.698;4.886;2022-08-19T13:28:54;101514.84;;;26.23;100.00
1480;BME280;732;51.698;4.886;2022-08-19T13:31:41;101533.75;;;26.43;100.00
1480;BME280;732;51.698;4.886;2022-08-19T13:34:32;101518.63;;;26.42;100.00
1480;BME280;732;51.698;4.886;2022-08-19T13:37:04;101528.06;;;26.77;100.00